Details for Ryanair at LIPE




Go Back


Latest METAR
Local Time

LIPE 212320Z 20012KT CAVOK 25/17 Q1012

22/06/2018, 01:35:47

Description
Results
Ryanair Logo
Number of Pilots based at LIPE
0 Pilots Based here
Number of Ryanair Flights Departed from LIPE
2 Flights Departed
Number of Ryanair Flights Arrived at LIPE
2 Flights Arrived
Number of Ryanair Schedules Departing from LIPE
113 Schedules
Number of Ryanair Schedules Arriving at LIPE
115 Schedules
Number of Ryanair Schedules Departing from LIPE availible today
35 Schedules Today
Number of Ryanair Schedules Arriving at LIPE availible today
35 Schedules Today
Average Landing Rate at LIPE
-174 fpm
Ryanair Average Landing Rate at LIPE
-259 fpm
Total Fuel Purchased at LIPE by Ryanair
11,675.92 kgs / 25,740.73 lbs

Pilots Based at LIPE


Pilot ID
Pilot Name
Pilot Rank
No. of Flights
No. of Flying Hours
There are no pilots assigned to this hub!   Will you be the first?
Content